Time;durP1;ratioP1;P1;durP2;ratioP2;P2;SDS_P1;SDS_P2;PMS_P1;PMS_P2;Temp;Humidity;BMP_temperature;BMP_pressure;BME280_temperature;BME280_humidity;BME280_pressure;Samples;Min_cycle;Max_cycle;Signal;HPM_P1;HPM_P2
2021/03/20 00:00:56;;;;;;;13.60;6.68;;;;;;;;;;4971583;28;20458;-63
2021/03/20 00:03:25;;;;;;;13.05;6.60;;;;;;;;;;4970034;28;20396;-63
2021/03/20 00:05:53;;;;;;;11.85;6.50;;;;;;;;;;4971936;28;20047;-63
2021/03/20 00:08:28;;;;;;;10.48;6.57;;;;;;;;;;4970149;28;20050;-64
2021/03/20 00:10:55;;;;;;;11.88;6.65;;;;;;;;;;4962318;28;20098;-64
2021/03/20 00:13:24;;;;;;;12.18;6.45;;;;;;;;;;4970893;28;20372;-64
2021/03/20 00:15:53;;;;;;;12.02;6.32;;;;;;;;;;4971529;28;20097;-64
2021/03/20 00:18:21;;;;;;;12.55;6.30;;;;;;;;;;4971015;28;20106;-64
2021/03/20 00:20:50;;;;;;;12.93;6.35;;;;;;;;;;4970927;28;20077;-64
2021/03/20 00:23:17;;;;;;;14.95;6.10;;;;;;;;;;4970834;28;20418;-63
2021/03/20 00:25:45;;;;;;;15.15;6.60;;;;;;;;;;4971167;28;20147;-64
2021/03/20 00:28:13;;;;;;;12.80;5.88;;;;;;;;;;4964999;28;20057;-64
2021/03/20 00:30:41;;;;;;;11.60;6.68;;;;;;;;;;4971196;28;20046;-63
2021/03/20 00:33:09;;;;;;;13.45;5.88;;;;;;;;;;4971052;28;20527;-63
2021/03/20 00:35:36;;;;;;;13.30;6.10;;;;;;;;;;4965022;28;20569;-63
2021/03/20 00:38:04;;;;;;;14.25;6.57;;;;;;;;;;4969872;28;20046;-64
2021/03/20 00:40:32;;;;;;;13.40;6.05;;;;;;;;;;4970887;28;20046;-63
2021/03/20 00:43:00;;;;;;;12.52;7.00;;;;;;;;;;4970372;28;20141;-64
2021/03/20 00:45:28;;;;;;;11.05;6.22;;;;;;;;;;4969283;28;20046;-63
2021/03/20 00:47:56;;;;;;;12.70;6.70;;;;;;;;;;4970297;28;20454;-63
2021/03/20 00:50:25;;;;;;;10.23;5.50;;;;;;;;;;4969856;28;20391;-63
2021/03/20 00:52:53;;;;;;;10.85;5.05;;;;;;;;;;4970618;28;20055;-63
2021/03/20 00:55:21;;;;;;;11.75;5.82;;;;;;;;;;4969799;28;20388;-63
2021/03/20 00:57:48;;;;;;;12.00;5.95;;;;;;;;;;4970158;28;20106;-63
2021/03/20 01:00:17;;;;;;;12.90;6.20;;;;;;;;;;4963921;28;20127;-63
2021/03/20 01:02:45;;;;;;;13.25;6.38;;;;;;;;;;4967773;28;20055;-63
2021/03/20 01:05:13;;;;;;;12.35;5.60;;;;;;;;;;4969788;28;20053;-63
2021/03/20 01:07:41;;;;;;;12.52;6.20;;;;;;;;;;4969898;28;20097;-63
2021/03/20 01:10:09;;;;;;;9.90;5.20;;;;;;;;;;4969740;28;20050;-63
2021/03/20 01:12:37;;;;;;;11.13;6.10;;;;;;;;;;4970327;28;20046;-63
2021/03/20 01:15:08;;;;;;;11.05;5.43;;;;;;;;;;4971129;28;20047;-63
2021/03/20 01:17:35;;;;;;;12.00;5.93;;;;;;;;;;4970402;28;20073;-63
2021/03/20 01:20:04;;;;;;;10.25;5.47;;;;;;;;;;4968969;28;20407;-63
2021/03/20 01:22:32;;;;;;;10.05;5.40;;;;;;;;;;4964783;28;20074;-63
2021/03/20 01:24:59;;;;;;;12.02;5.25;;;;;;;;;;4964130;28;20043;-63
2021/03/20 01:27:26;;;;;;;10.82;6.93;;;;;;;;;;4970328;28;20082;-63
2021/03/20 01:29:54;;;;;;;10.13;6.10;;;;;;;;;;4969421;28;20577;-63
2021/03/20 01:32:22;;;;;;;11.23;6.07;;;;;;;;;;4971155;28;20110;-63
2021/03/20 01:34:49;;;;;;;11.50;5.25;;;;;;;;;;4970412;28;20395;-63
2021/03/20 01:37:16;;;;;;;10.93;5.60;;;;;;;;;;4968659;28;20156;-63
2021/03/20 01:39:48;;;;;;;10.23;5.72;;;;;;;;;;4969660;28;20090;-63
2021/03/20 01:42:16;;;;;;;9.68;5.28;;;;;;;;;;4970598;28;20106;-63
2021/03/20 01:44:43;;;;;;;9.70;5.68;;;;;;;;;;4969549;28;20593;-63
2021/03/20 01:47:14;;;;;;;13.38;5.50;;;;;;;;;;4970772;28;20051;-63
2021/03/20 01:49:42;;;;;;;10.35;5.78;;;;;;;;;;4944838;29;20055;-63
2021/03/20 01:52:16;;;;;;;9.38;5.15;;;;;;;;;;4944473;28;20055;-63
2021/03/20 01:54:45;;;;;;;11.32;6.00;;;;;;;;;;4949134;28;20083;-63
2021/03/20 01:57:14;;;;;;;10.30;5.63;;;;;;;;;;4950573;29;20496;-63
2021/03/20 01:59:41;;;;;;;13.35;5.47;;;;;;;;;;4950448;28;20115;-63
2021/03/20 02:02:08;;;;;;;11.95;6.15;;;;;;;;;;4951844;29;20093;-63
2021/03/20 02:04:37;;;;;;;11.40;5.60;;;;;;;;;;4991497;23;20425;-63
2021/03/20 02:07:04;;;;;;;10.50;5.95;;;;;;;;;;4993373;28;20046;-62
2021/03/20 02:09:32;;;;;;;10.40;5.85;;;;;;;;;;4993678;28;20058;-62
2021/03/20 02:12:05;;;;;;;13.25;6.43;;;;;;;;;;4994839;28;20100;-63
2021/03/20 02:14:37;;;;;;;12.02;6.18;;;;;;;;;;4997561;28;20097;-63
2021/03/20 02:17:07;;;;;;;12.40;6.47;;;;;;;;;;4997090;28;20050;-62
2021/03/20 02:19:50;;;;;;;12.85;6.40;;;;;;;;;;4997692;28;20058;-62
2021/03/20 02:22:20;;;;;;;14.45;6.78;;;;;;;;;;4997204;28;20465;-63
2021/03/20 02:25:18;;;;;;;14.50;6.85;;;;;;;;;;4997692;28;20463;-62
2021/03/20 02:28:14;;;;;;;12.95;7.07;;;;;;;;;;4997817;28;20050;-63
2021/03/20 02:30:47;;;;;;;12.25;6.18;;;;;;;;;;4997567;28;20054;-62
2021/03/20 02:33:23;;;;;;;13.63;7.30;;;;;;;;;;4998037;28;20390;-62
2021/03/20 02:35:54;;;;;;;11.85;6.57;;;;;;;;;;4997028;28;20046;-62
2021/03/20 02:38:26;;;;;;;13.98;6.78;;;;;;;;;;4997440;28;20133;-62
2021/03/20 02:40:58;;;;;;;13.57;7.40;;;;;;;;;;4996682;28;20077;-65
2021/03/20 02:43:29;;;;;;;14.20;7.00;;;;;;;;;;4992254;28;20125;-65
2021/03/20 02:46:01;;;;;;;13.23;6.95;;;;;;;;;;4982889;28;20046;-65
2021/03/20 02:48:35;;;;;;;13.07;6.45;;;;;;;;;;4989447;28;20462;-64
2021/03/20 02:51:05;;;;;;;24.53;7.63;;;;;;;;;;4994090;28;20405;-65
2021/03/20 02:53:35;;;;;;;12.88;6.63;;;;;;;;;;5009506;28;20297;-65
2021/03/20 02:56:04;;;;;;;14.50;7.43;;;;;;;;;;5000788;28;20610;-65
2021/03/20 02:58:35;;;;;;;13.93;6.95;;;;;;;;;;5003421;28;20046;-65
2021/03/20 03:01:07;;;;;;;10.57;6.30;;;;;;;;;;5009634;28;20132;-65
2021/03/20 03:03:37;;;;;;;14.30;6.18;;;;;;;;;;5003023;28;20090;-64
2021/03/20 03:06:07;;;;;;;14.80;6.68;;;;;;;;;;5002267;28;20054;-63
2021/03/20 03:08:39;;;;;;;11.38;6.50;;;;;;;;;;4998089;28;20146;-62
2021/03/20 03:11:10;;;;;;;13.45;6.80;;;;;;;;;;4998175;28;20125;-62
2021/03/20 03:13:40;;;;;;;11.27;5.97;;;;;;;;;;4999824;28;20441;-63
2021/03/20 03:16:16;;;;;;;11.63;6.25;;;;;;;;;;5006286;28;20074;-62
2021/03/20 03:18:46;;;;;;;16.02;6.53;;;;;;;;;;5008003;28;20077;-63
2021/03/20 03:21:15;;;;;;;11.00;6.25;;;;;;;;;;5005318;28;20046;-62
2021/03/20 03:23:43;;;;;;;12.45;6.63;;;;;;;;;;5006512;28;20140;-63
2021/03/20 03:26:11;;;;;;;11.90;6.63;;;;;;;;;;5002163;28;20112;-63
2021/03/20 03:28:39;;;;;;;12.90;6.25;;;;;;;;;;5005880;28;20147;-62
2021/03/20 03:31:10;;;;;;;11.38;5.47;;;;;;;;;;5027300;28;20529;-63
2021/03/20 03:33:40;;;;;;;13.63;6.20;;;;;;;;;;5027483;28;20053;-62
2021/03/20 03:36:09;;;;;;;9.98;5.13;;;;;;;;;;5019650;28;20069;-62
2021/03/20 03:38:42;;;;;;;10.52;5.82;;;;;;;;;;5018892;28;20095;-62
2021/03/20 03:41:22;;;;;;;9.50;5.32;;;;;;;;;;5015086;28;20054;-63
2021/03/20 03:43:50;;;;;;;10.95;5.63;;;;;;;;;;5026705;28;20155;-63
2021/03/20 03:46:20;;;;;;;10.15;5.30;;;;;;;;;;5027952;28;20107;-63
2021/03/20 03:48:48;;;;;;;10.15;5.75;;;;;;;;;;5015104;28;20042;-63
2021/03/20 03:51:17;;;;;;;10.57;5.47;;;;;;;;;;5022412;28;20060;-63
2021/03/20 03:53:44;;;;;;;10.50;5.28;;;;;;;;;;5022451;28;20128;-63
2021/03/20 03:56:19;;;;;;;10.23;5.30;;;;;;;;;;5020457;28;20156;-64
2021/03/20 03:58:52;;;;;;;10.13;5.03;;;;;;;;;;5028118;28;20046;-64
2021/03/20 04:01:27;;;;;;;8.38;4.75;;;;;;;;;;5022391;28;20054;-64
2021/03/20 04:04:01;;;;;;;11.73;4.85;;;;;;;;;;5009593;28;20527;-66
2021/03/20 04:06:46;;;;;;;9.30;5.28;;;;;;;;;;5017654;28;20085;-63
2021/03/20 04:09:13;;;;;;;;;;;;;;;;;;5005711;28;20068;-63
2021/03/20 04:11:46;;;;;;;7.38;4.10;;;;;;;;;;5012960;28;19968;-64
2021/03/20 04:14:16;;;;;;;9.68;5.00;;;;;;;;;;5015126;28;20085;-63
2021/03/20 04:16:48;;;;;;;8.20;4.88;;;;;;;;;;5023658;28;20461;-63
2021/03/20 04:19:18;;;;;;;9.32;4.32;;;;;;;;;;5023897;28;20048;-63
2021/03/20 04:21:50;;;;;;;8.27;4.35;;;;;;;;;;5013307;28;20124;-63
2021/03/20 04:24:21;;;;;;;8.75;4.07;;;;;;;;;;5020161;28;20144;-63
2021/03/20 04:26:51;;;;;;;9.77;4.57;;;;;;;;;;5023687;28;20045;-64
2021/03/20 04:29:29;;;;;;;7.30;3.97;;;;;;;;;;5020521;28;20077;-63
2021/03/20 04:31:59;;;;;;;7.07;3.80;;;;;;;;;;5016053;28;20054;-63
2021/03/20 04:34:29;;;;;;;11.98;4.78;;;;;;;;;;5022419;28;20077;-63
2021/03/20 04:36:58;;;;;;;9.93;4.97;;;;;;;;;;5017904;28;20564;-63
2021/03/20 04:39:28;;;;;;;8.88;4.28;;;;;;;;;;5024891;28;20073;-63
2021/03/20 04:42:14;;;;;;;7.60;4.55;;;;;;;;;;5011185;28;20184;-63
2021/03/20 04:44:41;;;;;;;6.97;3.88;;;;;;;;;;5015299;28;20149;-64
2021/03/20 04:47:12;;;;;;;6.03;3.90;;;;;;;;;;5028897;28;20045;-63
2021/03/20 04:49:41;;;;;;;10.48;4.78;;;;;;;;;;5026340;28;20046;-63
2021/03/20 04:52:11;;;;;;;8.23;4.80;;;;;;;;;;5012557;28;20188;-64
2021/03/20 04:54:38;;;;;;;11.50;5.47;;;;;;;;;;5027407;28;20132;-63
2021/03/20 04:57:20;;;;;;;11.57;4.10;;;;;;;;;;5030074;28;20464;-63
2021/03/20 04:59:51;;;;;;;9.55;5.32;;;;;;;;;;5014596;28;20505;-63
2021/03/20 05:02:22;;;;;;;10.45;4.38;;;;;;;;;;5013110;28;20051;-64
2021/03/20 05:04:51;;;;;;;11.35;5.03;;;;;;;;;;5018743;28;20061;-63
2021/03/20 05:07:19;;;;;;;10.45;4.93;;;;;;;;;;5013060;28;20081;-63
2021/03/20 05:09:47;;;;;;;7.70;4.53;;;;;;;;;;5021892;28;20041;-64
2021/03/20 05:12:26;;;;;;;9.90;5.15;;;;;;;;;;5012892;28;20077;-63
2021/03/20 05:14:58;;;;;;;9.73;4.63;;;;;;;;;;5019526;28;20049;-64
2021/03/20 05:17:25;;;;;;;9.27;4.95;;;;;;;;;;5009815;28;20064;-64
2021/03/20 05:19:53;;;;;;;8.50;4.95;;;;;;;;;;5020893;28;20131;-66
2021/03/20 05:22:22;;;;;;;10.45;5.35;;;;;;;;;;5017419;28;20548;-66
2021/03/20 05:24:51;;;;;;;10.15;5.40;;;;;;;;;;5024969;28;20061;-63
2021/03/20 05:27:20;;;;;;;10.10;5.72;;;;;;;;;;5017182;28;20463;-63
2021/03/20 05:29:48;;;;;;;10.95;5.03;;;;;;;;;;5016950;28;20541;-63
2021/03/20 05:32:18;;;;;;;8.75;5.47;;;;;;;;;;5023381;28;20091;-64
2021/03/20 05:34:45;;;;;;;8.20;4.57;;;;;;;;;;5023937;28;20041;-64
2021/03/20 05:37:19;;;;;;;9.90;5.13;;;;;;;;;;5028152;28;20525;-64
2021/03/20 05:39:47;;;;;;;10.10;5.65;;;;;;;;;;5013876;28;20081;-65
2021/03/20 05:42:19;;;;;;;10.80;5.65;;;;;;;;;;5022533;28;20049;-64
2021/03/20 05:44:53;;;;;;;11.82;4.90;;;;;;;;;;5014730;28;20136;-64
2021/03/20 05:47:26;;;;;;;10.98;5.18;;;;;;;;;;5031521;28;20443;-64
2021/03/20 05:50:01;;;;;;;8.95;4.80;;;;;;;;;;5017208;28;20164;-64
2021/03/20 05:52:34;;;;;;;10.35;4.55;;;;;;;;;;5014938;28;20042;-64
2021/03/20 05:55:03;;;;;;;9.35;4.93;;;;;;;;;;5020703;28;20096;-63
2021/03/20 05:57:34;;;;;;;10.25;4.63;;;;;;;;;;5019336;28;20129;-64
2021/03/20 06:00:05;;;;;;;8.98;4.38;;;;;;;;;;5019321;28;20489;-64
2021/03/20 06:02:40;;;;;;;7.93;4.38;;;;;;;;;;5016543;28;20599;-63
2021/03/20 06:05:16;;;;;;;6.18;3.47;;;;;;;;;;5022435;28;20057;-65
2021/03/20 06:07:48;;;;;;;8.30;3.72;;;;;;;;;;5017078;28;20115;-65
2021/03/20 06:10:20;;;;;;;7.50;4.20;;;;;;;;;;5009994;28;20053;-65
2021/03/20 06:12:54;;;;;;;5.13;3.42;;;;;;;;;;5010552;28;20512;-65
2021/03/20 06:15:38;;;;;;;6.35;3.97;;;;;;;;;;5028593;28;20057;-64
2021/03/20 06:18:26;;;;;;;6.03;3.47;;;;;;;;;;5029045;28;20084;-64
2021/03/20 06:20:58;;;;;;;6.53;3.97;;;;;;;;;;5003375;28;20458;-64
2021/03/20 06:23:34;;;;;;;7.30;3.95;;;;;;;;;;5021949;28;20053;-64
2021/03/20 06:26:02;;;;;;;7.40;4.18;;;;;;;;;;5018116;28;20053;-64
2021/03/20 06:28:34;;;;;;;7.65;3.45;;;;;;;;;;5018233;28;20053;-65
2021/03/20 06:31:04;;;;;;;9.93;4.80;;;;;;;;;;5019407;28;20077;-65
2021/03/20 06:33:33;;;;;;;7.03;4.10;;;;;;;;;;5026026;28;20128;-64
2021/03/20 06:36:03;;;;;;;7.25;4.25;;;;;;;;;;5022112;28;20045;-64
2021/03/20 06:38:36;;;;;;;9.50;4.57;;;;;;;;;;5028065;28;20563;-65
2021/03/20 06:41:10;;;;;;;8.10;4.85;;;;;;;;;;5020412;28;20041;-65
2021/03/20 06:43:50;;;;;;;8.10;4.60;;;;;;;;;;5027274;28;20057;-65
2021/03/20 06:46:19;;;;;;;7.40;4.70;;;;;;;;;;5025135;28;20107;-65
2021/03/20 06:48:47;;;;;;;7.80;4.25;;;;;;;;;;5015149;28;20072;-65
2021/03/20 06:51:15;;;;;;;10.15;5.50;;;;;;;;;;5015185;28;20100;-65
2021/03/20 06:53:50;;;;;;;7.10;4.43;;;;;;;;;;5013975;28;20132;-65
2021/03/20 06:56:18;;;;;;;7.78;4.72;;;;;;;;;;5013035;28;20550;-66
2021/03/20 06:58:46;;;;;;;8.05;5.18;;;;;;;;;;5012903;28;20081;-66
2021/03/20 07:01:18;;;;;;;7.80;4.70;;;;;;;;;;5017033;28;20103;-66
2021/03/20 07:04:08;;;;;;;9.38;5.20;;;;;;;;;;5013717;28;20080;-65
2021/03/20 07:06:46;;;;;;;9.32;5.03;;;;;;;;;;5017884;28;20052;-66
2021/03/20 07:09:13;;;;;;;;;;;;;;;;;;5029096;28;20537;-65
2021/03/20 07:11:42;;;;;;;7.05;4.85;;;;;;;;;;5015148;28;19932;-65
2021/03/20 07:14:30;;;;;;;7.93;4.75;;;;;;;;;;5015127;28;20049;-65
2021/03/20 07:16:59;;;;;;;8.48;4.85;;;;;;;;;;5011553;28;20053;-65
2021/03/20 07:19:27;;;;;;;8.15;4.40;;;;;;;;;;5011319;28;20265;-66
2021/03/20 07:22:04;;;;;;;8.88;5.13;;;;;;;;;;5011727;28;20286;-66
2021/03/20 07:24:34;;;;;;;9.32;4.68;;;;;;;;;;5015792;28;20077;-65
2021/03/20 07:27:03;;;;;;;7.90;4.32;;;;;;;;;;5013777;28;20428;-65
2021/03/20 07:29:44;;;;;;;8.93;4.53;;;;;;;;;;5009801;28;20309;-65
2021/03/20 07:32:13;;;;;;;11.30;4.80;;;;;;;;;;5012137;28;20045;-65
2021/03/20 07:34:41;;;;;;;10.00;4.50;;;;;;;;;;5010639;28;20489;-65
2021/03/20 07:37:13;;;;;;;6.75;4.45;;;;;;;;;;5012296;28;20168;-65
2021/03/20 07:39:42;;;;;;;7.53;4.57;;;;;;;;;;5013159;28;20056;-65
2021/03/20 07:42:23;;;;;;;7.78;4.20;;;;;;;;;;5008184;28;20057;-65
2021/03/20 07:44:54;;;;;;;8.50;4.72;;;;;;;;;;5012135;28;20052;-64
2021/03/20 07:47:22;;;;;;;8.65;4.13;;;;;;;;;;5013925;28;20053;-65
2021/03/20 07:50:05;;;;;;;6.30;4.18;;;;;;;;;;5012430;28;20049;-65
2021/03/20 07:52:33;;;;;;;7.32;4.40;;;;;;;;;;5012622;28;20037;-65
2021/03/20 07:55:06;;;;;;;8.02;4.90;;;;;;;;;;5012925;28;20113;-65
2021/03/20 07:57:34;;;;;;;9.43;4.45;;;;;;;;;;5014703;28;20147;-65
2021/03/20 08:00:02;;;;;;;7.80;4.47;;;;;;;;;;5011132;28;20093;-64
2021/03/20 08:02:32;;;;;;;6.15;3.95;;;;;;;;;;5013145;28;20057;-66
2021/03/20 08:05:02;;;;;;;8.10;4.20;;;;;;;;;;5010319;28;20573;-66
2021/03/20 08:07:35;;;;;;;8.43;3.97;;;;;;;;;;5010552;28;20450;-66
2021/03/20 08:10:20;;;;;;;6.53;3.92;;;;;;;;;;5011751;28;20046;-64
2021/03/20 08:12:58;;;;;;;6.65;4.18;;;;;;;;;;5014502;28;20050;-65
2021/03/20 08:15:27;;;;;;;7.68;4.30;;;;;;;;;;5020818;28;20053;-66
2021/03/20 08:17:54;;;;;;;5.97;4.05;;;;;;;;;;5011415;28;20575;-64
2021/03/20 08:20:22;;;;;;;6.55;4.50;;;;;;;;;;5011618;28;20438;-65
2021/03/20 08:23:01;;;;;;;8.75;5.05;;;;;;;;;;5013745;28;20073;-66
2021/03/20 08:25:33;;;;;;;7.50;4.78;;;;;;;;;;5018546;28;20481;-64
2021/03/20 08:28:10;;;;;;;10.13;5.82;;;;;;;;;;5015518;28;20156;-64
2021/03/20 08:30:44;;;;;;;8.05;4.63;;;;;;;;;;5014411;28;20124;-66
2021/03/20 08:33:28;;;;;;;7.40;4.90;;;;;;;;;;5013156;28;20180;-65
2021/03/20 08:36:03;;;;;;;7.93;4.38;;;;;;;;;;5013294;28;20049;-64
2021/03/20 08:38:43;;;;;;;6.97;4.97;;;;;;;;;;5014144;28;20064;-65
2021/03/20 08:41:18;;;;;;;8.40;5.18;;;;;;;;;;5015075;28;20132;-65
2021/03/20 08:44:06;;;;;;;8.10;5.20;;;;;;;;;;5011883;28;20072;-65
2021/03/20 08:46:44;;;;;;;7.03;4.60;;;;;;;;;;5014212;28;20060;-66
2021/03/20 08:49:14;;;;;;;9.63;5.32;;;;;;;;;;5011320;28;20054;-66
2021/03/20 08:51:45;;;;;;;7.45;4.72;;;;;;;;;;5009177;28;20436;-67
2021/03/20 08:54:23;;;;;;;8.70;5.18;;;;;;;;;;5012070;28;20410;-67
2021/03/20 08:57:06;;;;;;;6.05;4.45;;;;;;;;;;5008981;28;20041;-65
2021/03/20 08:59:34;;;;;;;9.20;4.95;;;;;;;;;;5012756;28;20788;-64
2021/03/20 09:02:06;;;;;;;8.23;4.93;;;;;;;;;;5011946;28;20050;-65
2021/03/20 09:04:36;;;;;;;8.07;5.03;;;;;;;;;;5012163;28;20155;-65
2021/03/20 09:07:07;;;;;;;7.65;5.60;;;;;;;;;;5012030;28;20088;-65
2021/03/20 09:09:37;;;;;;;7.75;4.95;;;;;;;;;;5010753;28;20385;-65
2021/03/20 09:12:07;;;;;;;9.93;4.95;;;;;;;;;;5012605;28;20124;-64
2021/03/20 09:14:38;;;;;;;7.43;4.85;;;;;;;;;;5018064;28;20461;-65
2021/03/20 09:17:07;;;;;;;9.40;4.78;;;;;;;;;;5013610;28;20050;-66
2021/03/20 09:19:38;;;;;;;7.38;5.05;;;;;;;;;;5015078;28;20060;-66
2021/03/20 09:22:06;;;;;;;7.30;5.00;;;;;;;;;;5010342;28;20497;-65
2021/03/20 09:24:34;;;;;;;7.72;4.90;;;;;;;;;;5016195;28;20046;-66
2021/03/20 09:27:03;;;;;;;8.00;4.82;;;;;;;;;;5025861;28;20049;-65
2021/03/20 09:29:31;;;;;;;7.68;5.20;;;;;;;;;;5018448;28;20050;-65
2021/03/20 09:32:14;;;;;;;13.32;5.60;;;;;;;;;;5024518;28;20535;-66
2021/03/20 09:34:46;;;;;;;8.25;5.07;;;;;;;;;;5016843;28;20059;-66
2021/03/20 09:37:32;;;;;;;9.02;5.05;;;;;;;;;;5018373;28;20128;-65
2021/03/20 09:40:00;;;;;;;7.93;5.18;;;;;;;;;;5024858;28;20112;-66
2021/03/20 09:42:31;;;;;;;10.75;5.80;;;;;;;;;;5016710;28;20050;-65
2021/03/20 09:44:59;;;;;;;7.78;4.63;;;;;;;;;;5007303;28;20053;-66
2021/03/20 09:47:34;;;;;;;8.82;4.72;;;;;;;;;;5010850;28;20107;-65
2021/03/20 09:50:04;;;;;;;7.60;4.85;;;;;;;;;;5018611;28;20076;-66
2021/03/20 09:52:39;;;;;;;8.90;5.03;;;;;;;;;;5018276;28;20045;-66
2021/03/20 09:55:26;;;;;;;8.50;5.70;;;;;;;;;;5008811;28;20461;-65
2021/03/20 09:57:54;;;;;;;7.65;5.30;;;;;;;;;;5016043;28;20088;-65
2021/03/20 10:00:52;;;;;;;9.10;5.18;;;;;;;;;;5014186;28;20128;-65
2021/03/20 10:03:42;;;;;;;12.35;5.85;;;;;;;;;;4934208;29;20062;-65
2021/03/20 10:06:38;;;;;;;9.85;5.00;;;;;;;;;;5019305;28;20124;-65
2021/03/20 10:09:20;;;;;;;7.75;4.85;;;;;;;;;;5008123;28;20061;-65
2021/03/20 10:12:05;;;;;;;8.70;5.13;;;;;;;;;;5012989;28;20069;-65
2021/03/20 10:14:33;;;;;;;;;;;;;;;;;;5010627;28;20058;-65
2021/03/20 10:17:08;;;;;;;5.82;4.10;;;;;;;;;;5009608;28;19983;-65
2021/03/20 10:19:37;;;;;;;6.00;4.22;;;;;;;;;;5013877;28;20046;-66
2021/03/20 10:22:06;;;;;;;6.38;4.65;;;;;;;;;;5020126;28;20084;-66
2021/03/20 10:24:34;;;;;;;11.23;4.82;;;;;;;;;;5018250;28;20473;-65
2021/03/20 10:27:04;;;;;;;7.53;5.53;;;;;;;;;;5020374;28;20534;-65
2021/03/20 10:29:33;;;;;;;12.23;5.72;;;;;;;;;;5024249;28;20042;-64
2021/03/20 10:32:06;;;;;;;7.82;5.05;;;;;;;;;;5015725;28;20091;-65
2021/03/20 10:34:45;;;;;;;10.20;5.65;;;;;;;;;;5025017;28;20049;-65
2021/03/20 10:37:14;;;;;;;11.43;5.50;;;;;;;;;;5023107;28;20061;-65
2021/03/20 10:39:42;;;;;;;9.07;5.22;;;;;;;;;;5030272;28;20085;-65
2021/03/20 10:42:16;;;;;;;9.35;5.45;;;;;;;;;;5023176;28;20045;-65
2021/03/20 10:44:45;;;;;;;6.13;4.75;;;;;;;;;;5024825;28;20037;-65
2021/03/20 10:47:22;;;;;;;7.45;5.10;;;;;;;;;;5018791;28;20073;-67
2021/03/20 10:49:52;;;;;;;7.55;5.20;;;;;;;;;;5020433;28;20038;-66
2021/03/20 10:52:21;;;;;;;7.13;4.70;;;;;;;;;;5020493;28;20092;-66
2021/03/20 10:54:49;;;;;;;11.50;5.90;;;;;;;;;;5031088;28;20131;-65
2021/03/20 10:57:18;;;;;;;11.68;6.28;;;;;;;;;;5030518;28;20096;-65
2021/03/20 10:59:47;;;;;;;8.88;5.20;;;;;;;;;;5024977;28;20569;-65
2021/03/20 11:02:29;;;;;;;7.35;5.25;;;;;;;;;;5031429;28;20404;-66
2021/03/20 11:05:12;;;;;;;7.15;5.07;;;;;;;;;;5021229;28;20489;-66
2021/03/20 11:07:46;;;;;;;7.93;5.32;;;;;;;;;;5024629;28;20100;-65
2021/03/20 11:10:14;;;;;;;7.55;5.22;;;;;;;;;;5023026;28;20056;-66
2021/03/20 11:12:42;;;;;;;7.80;5.20;;;;;;;;;;5024948;28;20502;-67
2021/03/20 11:15:20;;;;;;;9.10;5.20;;;;;;;;;;5026010;28;20100;-64
2021/03/20 11:17:52;;;;;;;9.43;5.75;;;;;;;;;;5020271;28;20068;-65
2021/03/20 11:20:22;;;;;;;11.75;5.32;;;;;;;;;;5027704;28;20072;-65
2021/03/20 11:22:50;;;;;;;6.03;4.65;;;;;;;;;;5020393;28;20492;-65
2021/03/20 11:25:20;;;;;;;9.40;4.53;;;;;;;;;;5031118;28;20488;-66
2021/03/20 11:27:57;;;;;;;6.95;5.05;;;;;;;;;;5013989;28;20069;-65
2021/03/20 11:30:28;;;;;;;11.43;5.05;;;;;;;;;;5020900;28;20135;-66
2021/03/20 11:32:59;;;;;;;7.18;4.85;;;;;;;;;;5012855;28;20437;-64
2021/03/20 11:35:28;;;;;;;8.18;4.82;;;;;;;;;;5024852;28;20046;-64
2021/03/20 11:38:00;;;;;;;8.65;4.57;;;;;;;;;;5016703;28;20042;-64
2021/03/20 11:40:29;;;;;;;6.22;4.35;;;;;;;;;;5026621;28;20053;-65
2021/03/20 11:42:58;;;;;;;9.80;5.18;;;;;;;;;;5035877;28;20048;-64
2021/03/20 11:45:27;;;;;;;8.93;4.70;;;;;;;;;;5020999;28;20456;-65
2021/03/20 11:47:56;;;;;;;8.45;5.00;;;;;;;;;;5022471;28;20073;-65
2021/03/20 11:50:26;;;;;;;8.05;4.07;;;;;;;;;;5023605;28;20084;-64
2021/03/20 11:52:56;;;;;;;7.15;4.55;;;;;;;;;;5030681;28;20096;-65
2021/03/20 11:55:28;;;;;;;8.48;4.85;;;;;;;;;;5015962;28;20072;-64
2021/03/20 11:58:00;;;;;;;6.78;4.50;;;;;;;;;;5024910;28;20155;-65
2021/03/20 12:00:40;;;;;;;7.93;4.93;;;;;;;;;;5025738;28;20046;-64
2021/03/20 12:03:12;;;;;;;9.30;5.30;;;;;;;;;;5016570;28;20056;-64
2021/03/20 12:05:40;;;;;;;8.30;4.47;;;;;;;;;;5019134;28;20585;-65
2021/03/20 12:08:21;;;;;;;8.85;4.85;;;;;;;;;;5011200;28;20529;-65
2021/03/20 12:10:59;;;;;;;6.57;4.40;;;;;;;;;;5013274;28;20136;-64
2021/03/20 12:13:40;;;;;;;8.45;4.25;;;;;;;;;;5026099;28;20053;-65
2021/03/20 12:16:08;;;;;;;7.45;4.78;;;;;;;;;;5033294;28;20072;-64
2021/03/20 12:18:36;;;;;;;7.97;5.18;;;;;;;;;;5012184;28;20058;-64
2021/03/20 12:21:05;;;;;;;7.75;4.78;;;;;;;;;;5014803;28;20489;-64
2021/03/20 12:23:35;;;;;;;8.57;4.72;;;;;;;;;;5030616;28;20513;-64
2021/03/20 12:26:17;;;;;;;10.73;5.40;;;;;;;;;;5015896;28;20108;-64
2021/03/20 12:28:46;;;;;;;8.00;4.78;;;;;;;;;;5024505;28;20085;-65
2021/03/20 12:31:27;;;;;;;7.10;4.22;;;;;;;;;;5025356;28;20050;-65
2021/03/20 12:33:55;;;;;;;7.70;4.05;;;;;;;;;;5022475;28;20559;-64
2021/03/20 12:36:32;;;;;;;7.85;3.97;;;;;;;;;;5027237;28;20085;-64
2021/03/20 12:39:00;;;;;;;7.00;4.30;;;;;;;;;;5027165;28;20064;-64
2021/03/20 12:41:29;;;;;;;8.80;4.93;;;;;;;;;;5029649;28;20049;-64
2021/03/20 12:44:04;;;;;;;6.43;3.88;;;;;;;;;;5017778;28;20042;-64
2021/03/20 12:46:32;;;;;;;5.43;3.47;;;;;;;;;;5033126;28;20041;-64
2021/03/20 12:49:00;;;;;;;6.43;4.28;;;;;;;;;;5021048;28;20042;-65
2021/03/20 12:51:27;;;;;;;7.10;3.70;;;;;;;;;;5015247;28;20129;-64
2021/03/20 12:53:56;;;;;;;7.57;3.88;;;;;;;;;;5022189;28;20053;-65
2021/03/20 12:56:24;;;;;;;8.70;4.55;;;;;;;;;;5025696;28;20054;-63
2021/03/20 12:58:51;;;;;;;6.57;4.88;;;;;;;;;;5022704;28;20045;-69
2021/03/20 13:01:19;;;;;;;6.32;4.13;;;;;;;;;;5023918;28;20560;-64
2021/03/20 13:03:48;;;;;;;5.82;4.25;;;;;;;;;;5023864;28;20493;-64
2021/03/20 13:06:16;;;;;;;6.85;4.45;;;;;;;;;;5012043;28;20053;-64
2021/03/20 13:08:43;;;;;;;6.78;4.35;;;;;;;;;;5026377;28;20220;-65
2021/03/20 13:11:20;;;;;;;9.35;4.82;;;;;;;;;;5018249;28;20568;-64
2021/03/20 13:13:48;;;;;;;6.32;4.22;;;;;;;;;;5024463;28;20546;-64
2021/03/20 13:16:16;;;;;;;7.28;4.13;;;;;;;;;;5021923;28;20072;-65
2021/03/20 13:18:43;;;;;;;8.95;4.75;;;;;;;;;;5017836;28;20056;-65
2021/03/20 13:21:11;;;;;;;6.78;3.78;;;;;;;;;;5014228;28;20245;-65
2021/03/20 13:23:38;;;;;;;5.30;3.35;;;;;;;;;;5019533;28;20553;-65
2021/03/20 13:26:06;;;;;;;6.55;3.33;;;;;;;;;;5026455;28;20042;-64
2021/03/20 13:28:33;;;;;;;5.63;4.60;;;;;;;;;;5013610;28;20065;-64
2021/03/20 13:31:01;;;;;;;11.05;4.07;;;;;;;;;;5029279;28;20440;-64
2021/03/20 13:33:29;;;;;;;7.22;4.20;;;;;;;;;;5027415;28;20501;-64
2021/03/20 13:35:57;;;;;;;6.50;3.72;;;;;;;;;;5029303;28;20129;-64
2021/03/20 13:38:24;;;;;;;4.72;3.53;;;;;;;;;;5026476;28;20187;-64
2021/03/20 13:40:51;;;;;;;5.60;3.42;;;;;;;;;;5020739;28;20580;-64
2021/03/20 13:43:19;;;;;;;4.95;3.15;;;;;;;;;;5025928;28;20085;-64
2021/03/20 13:45:46;;;;;;;5.47;3.67;;;;;;;;;;5029704;28;20599;-65
2021/03/20 13:48:15;;;;;;;8.30;3.70;;;;;;;;;;5024832;28;20443;-65
2021/03/20 13:50:43;;;;;;;5.93;3.67;;;;;;;;;;5010009;28;20493;-64
2021/03/20 13:53:12;;;;;;;4.82;3.50;;;;;;;;;;5011748;28;20092;-64
2021/03/20 13:55:39;;;;;;;6.63;3.83;;;;;;;;;;5015063;28;20512;-64
2021/03/20 13:58:07;;;;;;;6.13;3.67;;;;;;;;;;5027877;28;20053;-65
2021/03/20 14:00:35;;;;;;;7.70;5.05;;;;;;;;;;5015239;28;20105;-65
2021/03/20 14:03:03;;;;;;;6.03;3.50;;;;;;;;;;5012461;28;20056;-65
2021/03/20 14:05:31;;;;;;;7.03;4.05;;;;;;;;;;5025139;28;20053;-64
2021/03/20 14:07:58;;;;;;;7.47;4.07;;;;;;;;;;5028626;28;20053;-65
2021/03/20 14:10:27;;;;;;;4.65;3.72;;;;;;;;;;5021580;28;20084;-65
2021/03/20 14:12:55;;;;;;;7.55;4.05;;;;;;;;;;5022449;28;20065;-65
2021/03/20 14:15:26;;;;;;;7.95;4.30;;;;;;;;;;5025351;28;20104;-65
2021/03/20 14:17:54;;;;;;;6.05;4.40;;;;;;;;;;5023486;28;20045;-65
2021/03/20 14:20:23;;;;;;;7.60;4.75;;;;;;;;;;5022939;28;20104;-65
2021/03/20 14:22:53;;;;;;;6.57;4.57;;;;;;;;;;5021240;28;20046;-65
2021/03/20 14:25:20;;;;;;;7.32;5.20;;;;;;;;;;5018965;28;20081;-65
2021/03/20 14:27:48;;;;;;;8.15;4.53;;;;;;;;;;5020527;28;20104;-68
2021/03/20 14:30:19;;;;;;;6.07;3.85;;;;;;;;;;5020798;28;20129;-65
2021/03/20 14:32:46;;;;;;;7.13;4.25;;;;;;;;;;5024259;28;20045;-64
2021/03/20 14:35:15;;;;;;;8.18;4.30;;;;;;;;;;5029746;28;20050;-64
2021/03/20 14:37:42;;;;;;;7.00;4.25;;;;;;;;;;5023423;28;20448;-64
2021/03/20 14:40:13;;;;;;;7.85;3.85;;;;;;;;;;5014530;28;20061;-64
2021/03/20 14:42:40;;;;;;;5.28;3.70;;;;;;;;;;5027448;28;20436;-65
2021/03/20 14:45:09;;;;;;;5.25;4.13;;;;;;;;;;5015050;28;20068;-65
2021/03/20 14:47:36;;;;;;;8.43;4.57;;;;;;;;;;5013684;28;20129;-64
2021/03/20 14:50:05;;;;;;;5.40;3.88;;;;;;;;;;5024770;28;20049;-65
2021/03/20 14:52:34;;;;;;;8.50;4.20;;;;;;;;;;5030348;28;20507;-64
2021/03/20 14:55:01;;;;;;;5.88;3.97;;;;;;;;;;5029306;28;20063;-64
2021/03/20 14:57:29;;;;;;;18.75;4.93;;;;;;;;;;5028081;28;20518;-64
2021/03/20 14:59:57;;;;;;;8.52;4.53;;;;;;;;;;5030712;28;20612;-64
2021/03/20 15:02:24;;;;;;;6.50;4.22;;;;;;;;;;5019616;28;20049;-64